createdAt,value
2023-06-19T00:00:00.866Z,22.80
2023-06-19T00:02:30.435Z,22.90
2023-06-19T00:04:58.585Z,22.80
2023-06-19T00:07:26.738Z,25.70
2023-06-19T00:09:55.252Z,22.70
2023-06-19T00:12:23.357Z,22.80
2023-06-19T00:14:51.538Z,23.00
2023-06-19T00:17:19.765Z,22.60
2023-06-19T00:19:50.493Z,22.70
2023-06-19T00:22:18.580Z,22.30
2023-06-19T00:24:46.977Z,22.50
2023-06-19T00:27:15.169Z,22.60
2023-06-19T00:29:43.234Z,22.80
2023-06-19T00:32:11.528Z,22.90
2023-06-19T00:34:39.690Z,22.50
2023-06-19T00:37:09.732Z,22.60
2023-06-19T00:39:37.998Z,23.00
2023-06-19T00:42:07.009Z,22.80
2023-06-19T00:44:35.136Z,22.80
2023-06-19T00:47:06.154Z,22.50
2023-06-19T00:49:34.417Z,22.90
2023-06-19T00:52:02.582Z,22.90
2023-06-19T00:54:33.070Z,22.60
2023-06-19T00:57:01.655Z,22.70
2023-06-19T00:59:30.621Z,22.60
2023-06-19T01:01:59.230Z,22.50
2023-06-19T01:04:27.708Z,22.60
2023-06-19T01:06:59.876Z,22.70
2023-06-19T01:09:35.938Z,22.60
2023-06-19T01:12:11.543Z,22.50
2023-06-19T01:14:45.806Z,22.00
2023-06-19T01:17:14.239Z,22.30
2023-06-19T01:19:42.507Z,22.00
2023-06-19T01:22:12.164Z,22.40
2023-06-19T01:24:40.282Z,25.80
2023-06-19T01:27:08.819Z,22.50
2023-06-19T01:29:36.989Z,22.30
2023-06-19T01:32:10.988Z,22.30
2023-06-19T01:34:41.264Z,22.20
2023-06-19T01:37:12.670Z,22.80
2023-06-19T01:39:42.481Z,21.40
2023-06-19T01:42:12.730Z,22.80
2023-06-19T01:44:41.001Z,22.10
2023-06-19T01:47:13.408Z,22.20
2023-06-19T01:49:41.597Z,22.00
2023-06-19T01:52:11.518Z,21.40
2023-06-19T01:54:39.642Z,21.70
2023-06-19T01:57:08.540Z,21.10
2023-06-19T01:59:37.068Z,22.00
2023-06-19T02:02:07.816Z,21.50
2023-06-19T02:04:36.041Z,20.90
2023-06-19T02:07:04.175Z,21.50
2023-06-19T02:09:33.681Z,21.10
2023-06-19T02:12:01.859Z,21.30
2023-06-19T02:14:29.980Z,21.10
2023-06-19T02:16:58.090Z,21.00
2023-06-19T02:19:26.367Z,21.60
2023-06-19T02:21:54.784Z,20.90
2023-06-19T02:26:52.961Z,21.20
2023-06-19T02:29:21.232Z,20.90
2023-06-19T02:31:49.390Z,21.00
2023-06-19T02:34:17.912Z,21.20
2023-06-19T02:36:48.288Z,20.80
2023-06-19T02:39:16.677Z,21.10
2023-06-19T02:41:47.119Z,20.90
2023-06-19T02:44:16.899Z,20.80
2023-06-19T02:46:45.016Z,20.90
2023-06-19T02:49:13.210Z,21.00
2023-06-19T02:51:42.436Z,21.30
2023-06-19T02:54:10.783Z,21.00
2023-06-19T02:56:40.371Z,21.00
2023-06-19T02:59:08.532Z,21.20
2023-06-19T03:01:38.145Z,20.70
2023-06-19T03:04:06.459Z,20.80
2023-06-19T03:06:41.189Z,21.10
2023-06-19T03:09:13.249Z,20.70
2023-06-19T03:11:41.725Z,21.00
2023-06-19T03:14:10.660Z,20.90
2023-06-19T03:16:40.143Z,20.90
2023-06-19T03:21:37.527Z,20.90
2023-06-19T03:24:06.405Z,20.80
2023-06-19T03:26:34.583Z,21.10
2023-06-19T03:31:32.458Z,21.00
2023-06-19T03:34:02.025Z,21.10
2023-06-19T03:36:30.146Z,21.00
2023-06-19T03:38:58.239Z,21.20
2023-06-19T03:43:54.841Z,21.20
2023-06-19T03:46:23.028Z,20.20
2023-06-19T03:48:51.221Z,21.20
2023-06-19T03:51:20.718Z,21.20
2023-06-19T03:53:48.855Z,20.80
2023-06-19T03:56:16.976Z,21.00
2023-06-19T03:58:45.154Z,20.80
2023-06-19T04:01:13.397Z,21.10
2023-06-19T04:03:42.322Z,21.20
2023-06-19T04:06:10.626Z,20.90
2023-06-19T04:08:40.303Z,21.40
2023-06-19T04:11:08.536Z,20.90
2023-06-19T04:13:36.732Z,21.00
2023-06-19T04:16:05.297Z,21.00
2023-06-19T04:18:33.482Z,20.90
2023-06-19T04:21:01.539Z,21.40
2023-06-19T04:23:32.392Z,21.00
2023-06-19T04:26:01.883Z,21.60
2023-06-19T04:28:30.048Z,21.20
2023-06-19T04:31:01.754Z,21.60
2023-06-19T04:33:30.681Z,21.30
2023-06-19T04:38:27.803Z,21.40
2023-06-19T04:40:56.162Z,21.50
2023-06-19T04:43:26.863Z,21.80
2023-06-19T04:50:57.134Z,22.00
2023-06-19T04:53:26.421Z,18.20
2023-06-19T04:55:56.102Z,21.70
2023-06-19T04:58:25.582Z,21.40
2023-06-19T05:00:53.860Z,22.40
2023-06-19T05:03:23.028Z,22.70
2023-06-19T05:05:51.549Z,21.50
2023-06-19T05:10:48.420Z,21.20
2023-06-19T05:13:16.674Z,22.80
2023-06-19T05:15:46.208Z,22.40
2023-06-19T05:18:14.340Z,22.40
2023-06-19T05:20:42.542Z,22.80
2023-06-19T05:23:10.676Z,22.90
2023-06-19T05:25:38.870Z,23.30
2023-06-19T05:28:07.052Z,24.80
2023-06-19T05:30:36.068Z,24.80
2023-06-19T05:33:05.767Z,25.30
2023-06-19T05:35:34.000Z,25.20
2023-06-19T05:38:02.073Z,24.90
2023-06-19T05:40:30.528Z,25.00
2023-06-19T05:42:58.644Z,25.50
2023-06-19T05:45:26.713Z,24.60
2023-06-19T05:47:54.878Z,24.80
2023-06-19T05:50:24.584Z,24.90
2023-06-19T05:52:52.804Z,24.60
2023-06-19T05:55:21.114Z,24.50
2023-06-19T05:57:49.443Z,24.40
2023-06-19T06:00:18.778Z,24.20
2023-06-19T06:02:47.135Z,24.40
2023-06-19T06:05:15.261Z,24.50
2023-06-19T06:07:44.725Z,24.80
2023-06-19T06:10:13.284Z,25.00
2023-06-19T06:12:41.393Z,24.60
2023-06-19T06:15:10.285Z,23.60
2023-06-19T06:17:38.453Z,24.10
2023-06-19T06:20:12.734Z,24.00
2023-06-19T06:22:41.240Z,24.10
2023-06-19T06:25:13.880Z,24.20
2023-06-19T06:27:43.634Z,24.70
2023-06-19T06:30:13.828Z,24.40
2023-06-19T06:32:42.067Z,24.40
2023-06-19T06:35:10.502Z,24.60
2023-06-19T06:37:38.580Z,24.70
2023-06-19T06:40:10.406Z,24.20
2023-06-19T06:42:40.602Z,24.70
2023-06-19T06:45:09.749Z,24.60
2023-06-19T06:47:38.038Z,24.70
2023-06-19T06:50:07.495Z,24.60
2023-06-19T06:52:35.643Z,24.80
2023-06-19T06:55:03.786Z,23.20
2023-06-19T06:57:31.967Z,24.10
2023-06-19T07:00:01.422Z,24.20
2023-06-19T07:02:29.661Z,24.70
2023-06-19T07:04:57.810Z,25.00
2023-06-19T07:07:25.851Z,25.10
2023-06-19T07:09:53.927Z,24.80
2023-06-19T07:12:22.070Z,24.40
2023-06-19T07:14:50.175Z,24.70
2023-06-19T07:17:21.269Z,24.50
2023-06-19T07:19:49.668Z,24.90
2023-06-19T07:22:17.697Z,25.00
2023-06-19T07:24:45.940Z,25.00
2023-06-19T07:27:14.062Z,25.20
2023-06-19T07:29:42.176Z,24.90
2023-06-19T07:32:10.488Z,24.70
2023-06-19T07:34:40.066Z,24.40
2023-06-19T07:37:08.220Z,24.30
2023-06-19T07:39:36.341Z,23.90
2023-06-19T07:42:04.580Z,24.30
2023-06-19T07:44:32.734Z,23.70
2023-06-19T07:47:00.850Z,22.90
2023-06-19T07:49:28.931Z,24.20
2023-06-19T07:51:58.398Z,23.80
2023-06-19T07:54:26.778Z,23.80
2023-06-19T07:56:55.026Z,23.90
2023-06-19T07:59:23.636Z,24.20
2023-06-19T08:01:51.700Z,24.50
2023-06-19T08:04:19.955Z,24.70
2023-06-19T08:06:48.205Z,24.50
2023-06-19T08:09:17.658Z,24.80
2023-06-19T08:11:45.786Z,24.40
2023-06-19T08:14:13.882Z,24.40
2023-06-19T08:16:42.070Z,24.00
2023-06-19T08:19:10.203Z,24.40
2023-06-19T08:21:38.314Z,23.30
2023-06-19T08:24:06.752Z,23.50
2023-06-19T08:26:36.234Z,23.60
2023-06-19T08:29:04.379Z,23.90
2023-06-19T08:31:32.441Z,24.80
2023-06-19T08:34:01.488Z,24.50
2023-06-19T08:36:29.629Z,24.50
2023-06-19T08:38:57.770Z,24.90
2023-06-19T08:41:25.909Z,25.00
2023-06-19T08:43:56.027Z,24.60
2023-06-19T08:46:24.258Z,24.70
2023-06-19T08:48:52.553Z,24.80
2023-06-19T08:51:20.699Z,24.80
2023-06-19T08:53:51.961Z,24.60
2023-06-19T08:56:20.139Z,25.00
2023-06-19T08:58:48.481Z,24.70
2023-06-19T09:01:20.359Z,24.30
2023-06-19T09:03:53.289Z,24.40
2023-06-19T09:06:22.564Z,23.60
2023-06-19T09:09:00.352Z,24.30
2023-06-19T09:11:28.426Z,24.50
2023-06-19T09:14:00.099Z,24.50
2023-06-19T09:16:39.454Z,24.30
2023-06-19T09:19:07.592Z,24.30
2023-06-19T09:21:38.510Z,24.80
2023-06-19T09:24:08.267Z,25.00
2023-06-19T09:26:36.640Z,24.30
2023-06-19T09:29:15.885Z,23.90
2023-06-19T09:31:46.777Z,24.80
2023-06-19T09:34:14.885Z,23.80
2023-06-19T09:36:43.132Z,24.90
2023-06-19T09:39:12.753Z,24.30
2023-06-19T09:41:42.275Z,24.40
2023-06-19T09:44:13.897Z,25.00
2023-06-19T09:46:46.701Z,24.50
2023-06-19T09:49:18.264Z,24.40
2023-06-19T09:51:46.383Z,24.70
2023-06-19T09:54:17.987Z,24.80
2023-06-19T09:56:46.757Z,24.80
2023-06-19T09:59:14.991Z,24.80
2023-06-19T10:01:44.055Z,24.60
2023-06-19T10:04:13.554Z,25.00
2023-06-19T10:06:47.903Z,25.60
2023-06-19T10:09:18.929Z,25.90
2023-06-19T10:11:48.603Z,25.80
2023-06-19T10:14:19.441Z,25.90
2023-06-19T10:16:48.241Z,25.90
2023-06-19T10:19:17.999Z,26.00
2023-06-19T10:21:50.208Z,26.10
2023-06-19T10:24:20.705Z,26.00
2023-06-19T10:26:59.891Z,25.60
2023-06-19T10:29:29.336Z,25.30
2023-06-19T10:31:58.104Z,25.20
2023-06-19T10:34:36.171Z,25.60
2023-06-19T10:37:06.669Z,25.90
2023-06-19T10:39:35.069Z,26.10
2023-06-19T10:42:07.298Z,26.00
2023-06-19T10:44:35.938Z,26.00
2023-06-19T10:47:04.179Z,26.10
2023-06-19T10:49:32.426Z,26.10
2023-06-19T10:52:02.344Z,26.30
2023-06-19T10:54:32.413Z,26.20
2023-06-19T10:57:04.195Z,26.30
2023-06-19T10:59:32.354Z,26.60
2023-06-19T11:02:00.467Z,26.40
2023-06-19T11:04:28.907Z,26.20
2023-06-19T11:06:57.057Z,25.50
2023-06-19T11:09:25.724Z,25.70
2023-06-19T11:11:55.183Z,26.00
2023-06-19T11:14:33.200Z,25.70
2023-06-19T11:17:01.696Z,26.20
2023-06-19T11:19:34.442Z,26.50
2023-06-19T11:22:03.907Z,26.60
2023-06-19T11:24:32.077Z,26.90
2023-06-19T11:27:00.416Z,27.30
2023-06-19T11:29:31.509Z,27.20
2023-06-19T11:32:09.169Z,27.30
2023-06-19T11:34:38.652Z,27.10
2023-06-19T11:37:15.309Z,26.60
2023-06-19T11:39:45.500Z,26.70
2023-06-19T11:42:13.847Z,26.80
2023-06-19T11:44:56.322Z,26.00
2023-06-19T11:47:26.035Z,26.70
2023-06-19T11:49:54.806Z,26.70
2023-06-19T11:52:22.867Z,26.70
2023-06-19T11:54:50.980Z,26.90
2023-06-19T11:57:19.052Z,27.20
2023-06-19T11:59:47.455Z,27.30
2023-06-19T12:02:15.754Z,27.50
2023-06-19T12:04:45.680Z,27.20
2023-06-19T12:07:13.945Z,27.40
2023-06-19T12:09:42.659Z,27.60
2023-06-19T12:12:11.428Z,27.40
2023-06-19T12:14:40.842Z,27.40
2023-06-19T12:17:09.584Z,27.50
2023-06-19T12:19:37.838Z,27.70
2023-06-19T12:22:07.989Z,27.60
2023-06-19T12:24:36.093Z,27.70
2023-06-19T12:27:04.308Z,27.80
2023-06-19T12:29:32.707Z,28.00
2023-06-19T12:32:04.805Z,27.90
2023-06-19T12:34:33.196Z,28.00
2023-06-19T12:37:01.306Z,28.10
2023-06-19T12:39:30.848Z,28.20
2023-06-19T12:41:58.948Z,28.30
2023-06-19T12:44:27.006Z,28.30
2023-06-19T12:46:55.097Z,28.20
2023-06-19T12:49:23.194Z,28.50
2023-06-19T12:51:53.222Z,28.70
2023-06-19T12:54:21.583Z,28.90
2023-06-19T12:56:52.025Z,28.70
2023-06-19T12:59:20.539Z,28.70
2023-06-19T13:01:48.863Z,28.60
2023-06-19T13:04:17.155Z,28.60
2023-06-19T13:06:45.498Z,28.70
2023-06-19T13:09:13.659Z,28.50
2023-06-19T13:11:41.731Z,28.20
2023-06-19T13:14:11.325Z,27.80
2023-06-19T13:19:10.466Z,28.10
2023-06-19T13:21:38.694Z,28.30
2023-06-19T13:24:07.465Z,28.70
2023-06-19T13:26:35.630Z,28.70
2023-06-19T13:29:03.907Z,28.30
2023-06-19T13:31:33.726Z,28.30
2023-06-19T13:34:01.773Z,28.60
2023-06-19T13:36:30.320Z,28.80
2023-06-19T13:38:58.655Z,29.00
2023-06-19T13:41:27.999Z,29.00
2023-06-19T13:43:56.150Z,29.10
2023-06-19T13:46:24.484Z,29.00
2023-06-19T13:48:54.146Z,29.00
2023-06-19T13:51:23.666Z,28.80
2023-06-19T13:53:52.154Z,28.80
2023-06-19T13:56:20.614Z,28.60
2023-06-19T13:58:48.769Z,28.50
2023-06-19T14:01:17.293Z,28.40
2023-06-19T14:03:45.572Z,28.20
2023-06-19T14:06:15.137Z,28.50
2023-06-19T14:08:43.206Z,28.60
2023-06-19T14:11:11.379Z,28.60
2023-06-19T14:13:39.665Z,28.30
2023-06-19T14:16:08.086Z,28.70
2023-06-19T14:18:37.995Z,29.00
2023-06-19T14:21:06.345Z,29.10
2023-06-19T14:23:41.239Z,29.00
2023-06-19T14:26:09.701Z,28.90
2023-06-19T14:28:40.249Z,28.90
2023-06-19T14:31:08.371Z,28.90
2023-06-19T14:33:38.122Z,28.70
2023-06-19T14:36:06.360Z,28.00
2023-06-19T14:38:36.133Z,27.80
2023-06-19T14:41:04.475Z,28.20
2023-06-19T14:43:34.269Z,28.10
2023-06-19T14:46:04.741Z,28.40
2023-06-19T14:48:32.878Z,28.90
2023-06-19T14:51:05.664Z,29.20
2023-06-19T14:53:35.414Z,29.20
2023-06-19T14:56:03.601Z,29.00
2023-06-19T14:58:31.826Z,29.10
2023-06-19T15:01:00.046Z,29.00
2023-06-19T15:03:28.511Z,29.00
2023-06-19T15:05:56.795Z,29.00
2023-06-19T15:08:25.325Z,28.90
2023-06-19T15:10:55.054Z,28.90
2023-06-19T15:13:23.541Z,29.20
2023-06-19T15:15:52.867Z,29.20
2023-06-19T15:18:21.077Z,29.20
2023-06-19T15:20:49.360Z,29.30
2023-06-19T15:23:17.687Z,29.10
2023-06-19T15:25:46.027Z,28.80
2023-06-19T15:28:16.602Z,29.10
2023-06-19T15:30:44.693Z,29.10
2023-06-19T15:33:12.854Z,29.20
2023-06-19T15:35:41.060Z,29.40
2023-06-19T15:38:09.158Z,29.40
2023-06-19T15:40:38.385Z,29.50
2023-06-19T15:43:06.960Z,29.40
2023-06-19T15:45:36.525Z,29.50
2023-06-19T15:48:04.988Z,29.60
2023-06-19T15:50:34.094Z,29.60
2023-06-19T15:53:02.428Z,29.60
2023-06-19T15:55:30.667Z,27.80
2023-06-19T15:57:58.713Z,30.20
2023-06-19T16:00:27.790Z,30.10
2023-06-19T16:02:57.450Z,30.10
2023-06-19T16:05:26.934Z,29.90
2023-06-19T16:07:55.234Z,29.70
2023-06-19T16:10:23.630Z,29.50
2023-06-19T16:12:51.998Z,29.20
2023-06-19T16:15:25.346Z,29.50
2023-06-19T16:17:55.100Z,29.80
2023-06-19T16:20:25.253Z,29.70
2023-06-19T16:22:54.827Z,29.70
2023-06-19T16:25:23.765Z,29.50
2023-06-19T16:27:52.258Z,29.50
2023-06-19T16:30:20.310Z,29.60
2023-06-19T16:32:48.502Z,29.60
2023-06-19T16:35:22.848Z,29.50
2023-06-19T16:37:54.690Z,29.40
2023-06-19T16:40:24.990Z,29.30
2023-06-19T16:42:53.637Z,29.40
2023-06-19T16:45:23.276Z,29.10
2023-06-19T16:47:51.538Z,29.10
2023-06-19T16:50:19.682Z,29.10
2023-06-19T16:52:49.257Z,29.20
2023-06-19T16:55:19.382Z,29.10
2023-06-19T16:57:47.931Z,29.00
2023-06-19T17:00:17.526Z,29.00
2023-06-19T17:02:46.490Z,28.90
2023-06-19T17:05:15.027Z,29.00
2023-06-19T17:07:43.242Z,28.80
2023-06-19T17:10:13.654Z,28.80
2023-06-19T17:12:43.112Z,28.80
2023-06-19T17:15:12.162Z,28.80
2023-06-19T17:17:40.480Z,28.70
2023-06-19T17:20:13.296Z,28.70
2023-06-19T17:22:41.611Z,28.90
2023-06-19T17:25:10.595Z,28.90
2023-06-19T17:27:38.671Z,28.70
2023-06-19T17:30:10.454Z,28.70
2023-06-19T17:32:38.840Z,28.60
2023-06-19T17:35:10.105Z,28.60
2023-06-19T17:37:38.778Z,28.60
2023-06-19T17:40:09.531Z,28.50
2023-06-19T17:42:38.716Z,28.50
2023-06-19T17:45:10.040Z,28.50
2023-06-19T17:47:38.409Z,28.50
2023-06-19T17:50:07.726Z,28.50
2023-06-19T17:52:35.835Z,28.40
2023-06-19T17:55:03.968Z,28.40
2023-06-19T17:57:32.126Z,28.20
2023-06-19T18:00:01.857Z,28.20
2023-06-19T18:02:34.866Z,28.20
2023-06-19T18:05:03.347Z,28.20
2023-06-19T18:07:31.450Z,28.10
2023-06-19T18:10:00.247Z,28.00
2023-06-19T18:12:28.358Z,28.00
2023-06-19T18:14:56.498Z,27.80
2023-06-19T18:17:24.679Z,27.70
2023-06-19T18:19:54.956Z,27.70
2023-06-19T18:22:23.102Z,27.60
2023-06-19T18:24:51.220Z,27.50
2023-06-19T18:27:20.542Z,27.30
2023-06-19T18:29:48.688Z,27.30
2023-06-19T18:32:16.910Z,27.20
2023-06-19T18:34:45.446Z,27.20
2023-06-19T18:37:15.030Z,26.90
2023-06-19T18:39:43.239Z,26.80
2023-06-19T18:42:11.378Z,26.60
2023-06-19T18:44:39.454Z,26.60
2023-06-19T18:47:07.984Z,26.50
2023-06-19T18:49:36.010Z,26.60
2023-06-19T18:52:04.357Z,26.60
2023-06-19T18:54:33.862Z,26.60
2023-06-19T18:57:01.976Z,26.60
2023-06-19T18:59:30.096Z,26.50
2023-06-19T19:01:58.312Z,26.50
2023-06-19T19:04:26.408Z,26.40
2023-06-19T19:06:54.465Z,26.50
2023-06-19T19:09:22.569Z,26.40
2023-06-19T19:11:53.982Z,26.30
2023-06-19T19:14:22.109Z,26.30
2023-06-19T19:16:50.289Z,26.10
2023-06-19T19:19:18.516Z,25.90
2023-06-19T19:21:46.590Z,25.60
2023-06-19T19:24:14.941Z,25.40
2023-06-19T19:26:45.027Z,25.00
2023-06-19T19:29:14.699Z,24.80
2023-06-19T19:31:42.855Z,24.60
2023-06-19T19:34:11.349Z,24.40
2023-06-19T19:36:39.435Z,24.30
2023-06-19T19:39:07.558Z,24.30
2023-06-19T19:41:35.679Z,24.20
2023-06-19T19:44:03.827Z,24.20
2023-06-19T19:46:33.441Z,24.10
2023-06-19T19:49:01.707Z,24.10
2023-06-19T19:51:29.788Z,24.10
2023-06-19T19:53:57.833Z,24.10
2023-06-19T19:56:26.130Z,24.00
2023-06-19T19:58:54.256Z,24.00
2023-06-19T20:01:22.469Z,24.00
2023-06-19T20:03:52.144Z,23.90
2023-06-19T20:06:20.322Z,23.80
2023-06-19T20:08:48.840Z,23.70
2023-06-19T20:11:16.972Z,23.60
2023-06-19T20:13:45.147Z,23.60
2023-06-19T20:16:13.231Z,23.50
2023-06-19T20:18:41.373Z,23.50
2023-06-19T20:21:10.873Z,22.70
2023-06-19T20:23:39.025Z,23.40
2023-06-19T20:26:07.247Z,23.30
2023-06-19T20:28:35.493Z,23.10
2023-06-19T20:31:03.894Z,23.00
2023-06-19T20:33:32.080Z,23.00
2023-06-19T20:36:02.055Z,23.00
2023-06-19T20:38:31.800Z,23.10
2023-06-19T20:41:01.929Z,23.10
2023-06-19T20:43:30.215Z,23.10
2023-06-19T20:46:01.342Z,22.70
2023-06-19T20:48:29.793Z,22.40
2023-06-19T20:50:58.785Z,22.20
2023-06-19T20:53:27.901Z,22.20
2023-06-19T20:55:57.373Z,22.10
2023-06-19T20:58:28.219Z,22.50
2023-06-19T21:00:56.550Z,21.90
2023-06-19T21:03:28.140Z,21.30
2023-06-19T21:05:57.754Z,22.10
2023-06-19T21:11:01.349Z,22.20
2023-06-19T21:13:31.250Z,21.20
2023-06-19T21:15:59.446Z,22.40
2023-06-19T21:18:27.727Z,22.30
2023-06-19T21:20:56.947Z,21.30
2023-06-19T21:23:25.844Z,21.00
2023-06-19T21:25:54.034Z,21.90
2023-06-19T21:28:23.538Z,22.20
2023-06-19T21:30:51.635Z,21.80
2023-06-19T21:33:21.607Z,21.80
2023-06-19T21:35:51.894Z,22.20
2023-06-19T21:38:20.182Z,20.90
2023-06-19T21:40:48.475Z,21.10
2023-06-19T21:43:17.059Z,21.60
2023-06-19T21:45:46.660Z,21.20
2023-06-19T21:48:14.808Z,21.10
2023-06-19T21:50:42.999Z,21.20
2023-06-19T21:53:11.199Z,21.10
2023-06-19T21:55:39.384Z,21.20
2023-06-19T21:58:07.954Z,21.00
2023-06-19T22:00:36.178Z,21.70
2023-06-19T22:03:05.828Z,21.40
2023-06-19T22:05:34.204Z,21.70
2023-06-19T22:08:02.329Z,20.70
2023-06-19T22:10:30.506Z,20.90
2023-06-19T22:12:58.552Z,22.10
2023-06-19T22:15:26.957Z,21.50
2023-06-19T22:17:55.225Z,21.20
2023-06-19T22:20:25.022Z,21.90
2023-06-19T22:22:53.429Z,21.00
2023-06-19T22:25:21.605Z,20.90
2023-06-19T22:30:23.621Z,20.80
2023-06-19T22:32:52.121Z,21.90
2023-06-19T22:35:20.624Z,20.60
2023-06-19T22:37:50.657Z,20.90
2023-06-19T22:45:21.095Z,21.20
2023-06-19T22:47:50.941Z,21.40
2023-06-19T22:50:19.783Z,21.00
2023-06-19T22:52:48.224Z,21.00
2023-06-19T22:55:17.717Z,21.40
2023-06-19T22:57:45.807Z,20.90
2023-06-19T23:00:15.028Z,21.00
2023-06-19T23:02:44.068Z,20.80
2023-06-19T23:05:13.848Z,21.00
2023-06-19T23:07:43.130Z,20.70
2023-06-19T23:10:12.184Z,22.50
2023-06-19T23:12:41.748Z,20.90
2023-06-19T23:15:10.982Z,21.10
2023-06-19T23:20:13.068Z,20.70
2023-06-19T23:22:42.085Z,21.10
2023-06-19T23:25:12.019Z,21.00
2023-06-19T23:27:41.677Z,21.20
2023-06-19T23:30:10.858Z,20.90
2023-06-19T23:32:39.185Z,21.10
2023-06-19T23:35:07.988Z,21.00
2023-06-19T23:40:08.918Z,21.10
2023-06-19T23:42:37.196Z,21.10
2023-06-19T23:45:07.628Z,21.00
2023-06-19T23:50:04.515Z,20.80
2023-06-19T23:57:41.232Z,20.90
